-5  °C
Temperature
-6  °C
  Dewpoint
93  %
   Humidity
Temp | Dewpoint | Humidity
5  km/h
Wind Speed
3  mph
Wind Speed
3  kts
Wind Speed
100°
Due East

Wind Speed
Clear
Conditions
Pressure 1028.91 (hPa) - 30.38 (in)
Visibility 0.0 (mi) - 0.0 (km)

Current Conditions
LSMM
Location Meiringen 6km (3.2mi)
Metar :LSMM 162350Z AUTO 10003KT 9999NDV NCD M05/M06 Q1029 RMK
Thu 1st January 03:00 am

Airport
  Metar Aviation API Data Provided by https://www.checkwx.com/ CSS/SVG/PHP scripts by weather34.com © 2015-2019